Meteo Giornale » Osservazioni meteo Stati Uniti (USA) » Arkadelphia
ore: 15:55 - Osservazioni Meteo Arkadelphia
Lat. 34° 6' N Lon. 93° 4' W Alt. 55 metri s.l.m.
37 °C
Sereno
Temp. 24 Ore
19 °C
37 °C
Nord
5.5 Km/h
Dew point 17 °C
Umidità 30 %
Visibilità 10 Km
Il sole sorge alle ore 06:45
Il sole tramonta alle ore 19:39
| Data e Ora | Cielo e Fenomeni | T °C | DP °C | Um. % | Pres. hPa | Vis. km | Vento km/h | |
|---|---|---|---|---|---|---|---|---|
| Oggi h: 15:55 | Sereno | 37 | 17 | 30 | 1015 | 10 | N 5.5 | |
| Oggi h: 14:55 | Sereno | 37 | 19 | 35 | 1016 | 10 | N 0 | |
| Oggi h: 13:55 | Nuvoloso | 37 | 22 | 42 | 1016 | 10 | N 5.5 | |
| Oggi h: 12:55 | Sereno | 36 | 22 | 44 | 1017 | 10 | N 5.5 | |
| Oggi h: 11:55 | Sereno | 34 | 22 | 49 | 1018 | 10 | N 9.3 | |
| Oggi h: 10:55 | Sereno | 32 | 23 | 59 | 1018 | 10 | N 5.5 | |
| Oggi h: 09:55 | Sereno | 29 | 23 | 70 | 1018 | 10 | N 0 | |
| Oggi h: 08:55 | Sereno | 27 | 22 | 74 | 1018 | 10 | N 0 | |
| Oggi h: 07:55 | Sereno | 22 | 21 | 94 | 1018 | 10 | N 0 | |
| Oggi h: 06:55 | Sereno | 19 | 19 | 100 | 1017 | 14 | N 0 | |
| Oggi h: 05:55 | Sereno | 20 | 20 | 100 | 1017 | 10 | N 0 | |
| Oggi h: 04:55 | Sereno | 20 | 20 | 100 | 1016 | 10 | N 0 | |
| Oggi h: 03:55 | Sereno | 21 | 21 | 100 | 1016 | 10 | N 0 | |
| Oggi h: 02:55 | Sereno | 21 | 21 | 100 | 1016 | 10 | N 0 | |
| Oggi h: 01:55 | Sereno | 21 | 21 | 100 | 1016 | 10 | N 0 | |
| Oggi h: 00:55 | Sereno | 21 | 21 | 100 | 1016 | 10 | N 0 | |
| Ieri h: 23:55 | Sereno | 23 | 21 | 88 | 1016 | 10 | N 0 | |
| Ieri h: 22:55 | Sereno | 23 | 21 | 88 | 1016 | 10 | N 0 | |
| Ieri h: 21:55 | Sereno | 23 | 22 | 94 | 1015 | 10 | N 0 | |
| Ieri h: 20:55 | Sereno | 24 | 22 | 88 | 1014 | 10 | N 0 | |
| Ieri h: 19:55 | Sereno | 26 | 23 | 83 | 1014 | 10 | N 0 | |
| Ieri h: 18:55 | Sereno | 34 | 22 | 49 | 1014 | 10 | N 0 | |
| Ieri h: 17:55 | Sereno | 36 | 19 | 36 | 1014 | 10 | N 0 | |
| Ieri h: 16:55 | Sereno | 37 | 17 | 30 | 1014 | 10 | N 0 | |



